sensor_id;sensor_type;location;lat;lon;timestamp;temperature;humidity
65064;DHT22;51654;51.452;6.644;2022-12-07T00:28:49;3.80;82.60
65064;DHT22;51654;51.452;6.644;2022-12-07T00:31:18;3.70;82.60
65064;DHT22;51654;51.452;6.644;2022-12-07T00:33:45;3.80;82.70
65064;DHT22;51654;51.452;6.644;2022-12-07T00:36:18;3.80;82.70
65064;DHT22;51654;51.452;6.644;2022-12-07T00:38:52;3.80;82.70
65064;DHT22;51654;51.452;6.644;2022-12-07T00:41:21;3.70;82.70
65064;DHT22;51654;51.452;6.644;2022-12-07T00:43:49;3.70;82.80
65064;DHT22;51654;51.452;6.644;2022-12-07T00:46:17;3.80;82.80
65064;DHT22;51654;51.452;6.644;2022-12-07T00:48:44;3.80;82.80
65064;DHT22;51654;51.452;6.644;2022-12-07T00:51:13;3.80;82.80
65064;DHT22;51654;51.452;6.644;2022-12-07T00:53:40;3.80;82.80
65064;DHT22;51654;51.452;6.644;2022-12-07T00:56:37;3.80;82.80
65064;DHT22;51654;51.452;6.644;2022-12-07T00:59:04;3.70;82.70
65064;DHT22;51654;51.452;6.644;2022-12-07T01:01:33;3.80;82.70
65064;DHT22;51654;51.452;6.644;2022-12-07T01:04:02;3.70;82.70
65064;DHT22;51654;51.452;6.644;2022-12-07T01:06:30;3.70;82.70
65064;DHT22;51654;51.452;6.644;2022-12-07T01:08:57;3.70;82.70
65064;DHT22;51654;51.452;6.644;2022-12-07T01:11:26;3.70;82.80
65064;DHT22;51654;51.452;6.644;2022-12-07T01:13:55;3.70;82.80
65064;DHT22;51654;51.452;6.644;2022-12-07T01:16:25;3.70;82.70
65064;DHT22;51654;51.452;6.644;2022-12-07T01:18:53;3.70;82.70
65064;DHT22;51654;51.452;6.644;2022-12-07T01:21:23;3.70;82.70
65064;DHT22;51654;51.452;6.644;2022-12-07T01:23:50;3.60;82.70
65064;DHT22;51654;51.452;6.644;2022-12-07T01:26:21;3.60;82.70
65064;DHT22;51654;51.452;6.644;2022-12-07T01:28:48;3.50;82.70
65064;DHT22;51654;51.452;6.644;2022-12-07T01:31:18;3.50;82.80
65064;DHT22;51654;51.452;6.644;2022-12-07T01:33:48;3.50;82.80
65064;DHT22;51654;51.452;6.644;2022-12-07T01:36:17;3.50;82.80
65064;DHT22;51654;51.452;6.644;2022-12-07T01:38:46;3.40;82.90
65064;DHT22;51654;51.452;6.644;2022-12-07T01:41:14;3.40;83.00
65064;DHT22;51654;51.452;6.644;2022-12-07T01:46:34;3.40;83.10
65064;DHT22;51654;51.452;6.644;2022-12-07T01:49:02;3.40;83.10
65064;DHT22;51654;51.452;6.644;2022-12-07T01:51:30;3.30;83.10
65064;DHT22;51654;51.452;6.644;2022-12-07T01:53:57;3.30;83.10
65064;DHT22;51654;51.452;6.644;2022-12-07T01:56:26;3.20;83.10
65064;DHT22;51654;51.452;6.644;2022-12-07T01:58:55;3.20;83.20
65064;DHT22;51654;51.452;6.644;2022-12-07T02:01:23;3.20;83.30
65064;DHT22;51654;51.452;6.644;2022-12-07T02:03:50;3.30;83.30
65064;DHT22;51654;51.452;6.644;2022-12-07T02:06:20;3.20;83.30
65064;DHT22;51654;51.452;6.644;2022-12-07T02:08:49;3.20;83.30
65064;DHT22;51654;51.452;6.644;2022-12-07T02:11:16;3.20;83.30
65064;DHT22;51654;51.452;6.644;2022-12-07T02:13:45;3.20;83.30
65064;DHT22;51654;51.452;6.644;2022-12-07T02:16:38;3.20;83.30
65064;DHT22;51654;51.452;6.644;2022-12-07T02:22:34;3.10;83.50
65064;DHT22;51654;51.452;6.644;2022-12-07T02:32:40;3.10;83.50
65064;DHT22;51654;51.452;6.644;2022-12-07T02:37:42;3.10;83.40
65064;DHT22;51654;51.452;6.644;2022-12-07T02:40:22;3.10;83.40
65064;DHT22;51654;51.452;6.644;2022-12-07T02:43:00;3.10;83.30
65064;DHT22;51654;51.452;6.644;2022-12-07T02:45:27;3.10;83.30
65064;DHT22;51654;51.452;6.644;2022-12-07T02:47:56;3.00;83.30
65064;DHT22;51654;51.452;6.644;2022-12-07T02:50:25;3.00;83.20
65064;DHT22;51654;51.452;6.644;2022-12-07T02:52:52;3.00;83.10
65064;DHT22;51654;51.452;6.644;2022-12-07T02:55:19;3.00;83.20
65064;DHT22;51654;51.452;6.644;2022-12-07T03:00:22;2.90;83.30
65064;DHT22;51654;51.452;6.644;2022-12-07T03:02:58;2.80;83.20
65064;DHT22;51654;51.452;6.644;2022-12-07T03:05:52;2.80;83.20
65064;DHT22;51654;51.452;6.644;2022-12-07T03:08:37;2.70;83.30
65064;DHT22;51654;51.452;6.644;2022-12-07T03:11:08;2.70;83.40
65064;DHT22;51654;51.452;6.644;2022-12-07T03:13:49;2.70;83.50
65064;DHT22;51654;51.452;6.644;2022-12-07T03:16:45;2.70;83.50
65064;DHT22;51654;51.452;6.644;2022-12-07T03:19:15;2.60;83.50
65064;DHT22;51654;51.452;6.644;2022-12-07T03:22:17;2.60;83.50
65064;DHT22;51654;51.452;6.644;2022-12-07T03:24:41;2.50;83.50
65064;DHT22;51654;51.452;6.644;2022-12-07T03:27:13;2.50;83.60
65064;DHT22;51654;51.452;6.644;2022-12-07T03:29:44;2.50;83.60
65064;DHT22;51654;51.452;6.644;2022-12-07T03:32:14;2.50;83.60
65064;DHT22;51654;51.452;6.644;2022-12-07T03:34:53;2.40;83.60
65064;DHT22;51654;51.452;6.644;2022-12-07T09:09:40;8.60;67.70
65064;DHT22;51654;51.452;6.644;2022-12-07T09:12:07;8.90;67.20
65064;DHT22;51654;51.452;6.644;2022-12-07T10:13:37;10.60;60.80
65064;DHT22;51654;51.452;6.644;2022-12-07T10:16:04;11.00;59.00
65064;DHT22;51654;51.452;6.644;2022-12-07T10:18:34;11.40;57.80
65064;DHT22;51654;51.452;6.644;2022-12-07T10:21:05;11.70;56.60
65064;DHT22;51654;51.452;6.644;2022-12-07T10:23:36;11.60;55.30
65064;DHT22;51654;51.452;6.644;2022-12-07T10:26:26;11.50;55.00
65064;DHT22;51654;51.452;6.644;2022-12-07T10:28:50;11.40;54.70
65064;DHT22;51654;51.452;6.644;2022-12-07T10:31:18;11.40;54.70
65064;DHT22;51654;51.452;6.644;2022-12-07T10:36:20;11.30;54.40
65064;DHT22;51654;51.452;6.644;2022-12-07T10:38:48;11.00;54.40
65064;DHT22;51654;51.452;6.644;2022-12-07T10:41:16;10.50;54.70
65064;DHT22;51654;51.452;6.644;2022-12-07T10:43:49;10.10;55.10
65064;DHT22;51654;51.452;6.644;2022-12-07T10:48:53;9.50;56.30
65064;DHT22;51654;51.452;6.644;2022-12-07T10:54:24;8.80;57.90
65064;DHT22;51654;51.452;6.644;2022-12-07T10:59:41;8.30;59.30
65064;DHT22;51654;51.452;6.644;2022-12-07T11:12:52;8.10;60.30
65064;DHT22;51654;51.452;6.644;2022-12-07T11:15:24;7.90;60.50
65064;DHT22;51654;51.452;6.644;2022-12-07T11:25:54;7.60;61.30
65064;DHT22;51654;51.452;6.644;2022-12-07T11:31:22;7.50;62.10
65064;DHT22;51654;51.452;6.644;2022-12-07T11:34:00;7.60;62.40
65064;DHT22;51654;51.452;6.644;2022-12-07T11:38:59;7.50;62.50
65064;DHT22;51654;51.452;6.644;2022-12-07T11:41:28;7.40;62.70
65064;DHT22;51654;51.452;6.644;2022-12-07T11:46:25;7.10;63.40
65064;DHT22;51654;51.452;6.644;2022-12-07T11:49:03;7.10;63.80
65064;DHT22;51654;51.452;6.644;2022-12-07T11:51:34;7.00;64.20
65064;DHT22;51654;51.452;6.644;2022-12-07T11:54:03;6.90;64.50
65064;DHT22;51654;51.452;6.644;2022-12-07T11:56:31;6.70;64.70
65064;DHT22;51654;51.452;6.644;2022-12-07T12:06:24;6.30;65.90
65064;DHT22;51654;51.452;6.644;2022-12-07T12:08:54;6.30;66.20
65064;DHT22;51654;51.452;6.644;2022-12-07T12:11:47;6.20;66.40
65064;DHT22;51654;51.452;6.644;2022-12-07T12:19:58;6.20;67.10
65064;DHT22;51654;51.452;6.644;2022-12-07T12:22:33;6.10;67.20
65064;DHT22;51654;51.452;6.644;2022-12-07T12:25:02;6.10;67.30
65064;DHT22;51654;51.452;6.644;2022-12-07T12:27:30;6.00;67.50
65064;DHT22;51654;51.452;6.644;2022-12-07T12:29:59;6.00;67.70
65064;DHT22;51654;51.452;6.644;2022-12-07T12:32:36;5.90;67.90
65064;DHT22;51654;51.452;6.644;2022-12-07T12:35:21;5.80;68.20
65064;DHT22;51654;51.452;6.644;2022-12-07T12:37:51;5.70;68.30
65064;DHT22;51654;51.452;6.644;2022-12-07T12:45:22;5.80;68.80
65064;DHT22;51654;51.452;6.644;2022-12-07T12:50:20;5.90;68.90
65064;DHT22;51654;51.452;6.644;2022-12-07T12:52:52;5.90;69.20
65064;DHT22;51654;51.452;6.644;2022-12-07T12:55:20;5.90;69.20
65064;DHT22;51654;51.452;6.644;2022-12-07T12:58:21;5.90;69.10
65064;DHT22;51654;51.452;6.644;2022-12-07T13:00:35;5.90;69.10
65064;DHT22;51654;51.452;6.644;2022-12-07T13:03:02;6.00;69.10
65064;DHT22;51654;51.452;6.644;2022-12-07T13:05:33;6.00;69.10
65064;DHT22;51654;51.452;6.644;2022-12-07T13:08:00;6.00;69.20
65064;DHT22;51654;51.452;6.644;2022-12-07T13:13:01;6.00;69.10
65064;DHT22;51654;51.452;6.644;2022-12-07T13:15:38;6.00;69.20
65064;DHT22;51654;51.452;6.644;2022-12-07T13:18:22;6.00;69.20
65064;DHT22;51654;51.452;6.644;2022-12-07T13:20:50;6.10;69.10
65064;DHT22;51654;51.452;6.644;2022-12-07T13:23:18;6.20;69.00
65064;DHT22;51654;51.452;6.644;2022-12-07T13:25:49;6.30;68.90
65064;DHT22;51654;51.452;6.644;2022-12-07T13:28:17;6.30;68.60
65064;DHT22;51654;51.452;6.644;2022-12-07T13:30:46;6.30;68.40
65064;DHT22;51654;51.452;6.644;2022-12-07T13:33:14;6.20;68.40
65064;DHT22;51654;51.452;6.644;2022-12-07T13:35:42;6.20;68.40
65064;DHT22;51654;51.452;6.644;2022-12-07T13:38:22;6.20;68.40
65064;DHT22;51654;51.452;6.644;2022-12-07T13:43:28;6.20;68.10
65064;DHT22;51654;51.452;6.644;2022-12-07T13:45:56;6.10;68.00
65064;DHT22;51654;51.452;6.644;2022-12-07T13:48:43;6.10;68.00
65064;DHT22;51654;51.452;6.644;2022-12-07T13:51:16;6.00;67.90
65064;DHT22;51654;51.452;6.644;2022-12-07T13:53:47;6.00;68.00
65064;DHT22;51654;51.452;6.644;2022-12-07T13:56:14;5.90;68.10
65064;DHT22;51654;51.452;6.644;2022-12-07T13:58:45;5.80;68.30
65064;DHT22;51654;51.452;6.644;2022-12-07T14:01:12;5.80;68.40
65064;DHT22;51654;51.452;6.644;2022-12-07T14:03:40;5.80;68.50
65064;DHT22;51654;51.452;6.644;2022-12-07T14:06:13;5.80;68.40
65064;DHT22;51654;51.452;6.644;2022-12-07T14:08:41;5.80;68.60
65064;DHT22;51654;51.452;6.644;2022-12-07T14:11:10;5.80;68.70
65064;DHT22;51654;51.452;6.644;2022-12-07T14:13:40;5.80;68.70
65064;DHT22;51654;51.452;6.644;2022-12-07T14:18:43;5.70;68.80
65064;DHT22;51654;51.452;6.644;2022-12-07T14:23:37;5.50;69.10
65064;DHT22;51654;51.452;6.644;2022-12-07T14:26:06;5.50;69.30
65064;DHT22;51654;51.452;6.644;2022-12-07T14:28:34;5.40;69.40
65064;DHT22;51654;51.452;6.644;2022-12-07T14:31:02;5.40;69.60
65064;DHT22;51654;51.452;6.644;2022-12-07T14:33:29;5.40;69.80
65064;DHT22;51654;51.452;6.644;2022-12-07T14:35:56;5.30;69.80
65064;DHT22;51654;51.452;6.644;2022-12-07T14:38:25;5.20;70.00
65064;DHT22;51654;51.452;6.644;2022-12-07T14:40:53;5.10;70.20
65064;DHT22;51654;51.452;6.644;2022-12-07T14:43:20;5.10;70.30
65064;DHT22;51654;51.452;6.644;2022-12-07T14:45:47;5.00;70.50
65064;DHT22;51654;51.452;6.644;2022-12-07T14:48:14;4.90;70.70
65064;DHT22;51654;51.452;6.644;2022-12-07T14:51:01;4.90;71.00
65064;DHT22;51654;51.452;6.644;2022-12-07T14:53:49;4.90;71.10
65064;DHT22;51654;51.452;6.644;2022-12-07T14:56:22;4.80;71.30
65064;DHT22;51654;51.452;6.644;2022-12-07T15:11:15;4.50;72.10
65064;DHT22;51654;51.452;6.644;2022-12-07T15:13:43;4.50;72.20
65064;DHT22;51654;51.452;6.644;2022-12-07T15:16:28;4.50;72.30
65064;DHT22;51654;51.452;6.644;2022-12-07T15:19:18;4.50;72.40
65064;DHT22;51654;51.452;6.644;2022-12-07T15:21:55;4.40;72.60
65064;DHT22;51654;51.452;6.644;2022-12-07T15:24:21;4.40;72.70
65064;DHT22;51654;51.452;6.644;2022-12-07T15:26:50;4.30;72.80
65064;DHT22;51654;51.452;6.644;2022-12-07T15:29:18;4.30;73.00
65064;DHT22;51654;51.452;6.644;2022-12-07T15:31:52;4.30;73.10
65064;DHT22;51654;51.452;6.644;2022-12-07T15:34:26;4.20;73.20
65064;DHT22;51654;51.452;6.644;2022-12-07T15:37:07;4.30;73.20
65064;DHT22;51654;51.452;6.644;2022-12-07T15:39:36;4.30;73.20
65064;DHT22;51654;51.452;6.644;2022-12-07T15:42:03;4.30;73.20
65064;DHT22;51654;51.452;6.644;2022-12-07T15:44:30;4.20;73.20
65064;DHT22;51654;51.452;6.644;2022-12-07T15:47:15;4.30;73.20
65064;DHT22;51654;51.452;6.644;2022-12-07T15:49:43;4.30;73.20
65064;DHT22;51654;51.452;6.644;2022-12-07T15:52:10;4.30;73.20
65064;DHT22;51654;51.452;6.644;2022-12-07T15:54:37;4.30;73.20
65064;DHT22;51654;51.452;6.644;2022-12-07T15:57:04;4.30;73.20
65064;DHT22;51654;51.452;6.644;2022-12-07T15:59:34;4.30;73.30
65064;DHT22;51654;51.452;6.644;2022-12-07T16:02:01;4.30;73.20
65064;DHT22;51654;51.452;6.644;2022-12-07T16:04:28;4.30;73.30
65064;DHT22;51654;51.452;6.644;2022-12-07T16:06:58;4.30;73.30
65064;DHT22;51654;51.452;6.644;2022-12-07T16:09:25;4.30;73.30
65064;DHT22;51654;51.452;6.644;2022-12-07T16:11:52;4.30;73.20
65064;DHT22;51654;51.452;6.644;2022-12-07T16:14:19;4.20;73.20
65064;DHT22;51654;51.452;6.644;2022-12-07T16:16:46;4.20;73.20
65064;DHT22;51654;51.452;6.644;2022-12-07T16:19:16;4.30;73.20
65064;DHT22;51654;51.452;6.644;2022-12-07T16:21:44;4.30;73.10
65064;DHT22;51654;51.452;6.644;2022-12-07T16:24:11;4.30;73.10
65064;DHT22;51654;51.452;6.644;2022-12-07T16:26:41;4.30;73.10
65064;DHT22;51654;51.452;6.644;2022-12-07T16:29:16;4.30;73.00
65064;DHT22;51654;51.452;6.644;2022-12-07T16:31:43;4.30;73.00
65064;DHT22;51654;51.452;6.644;2022-12-07T16:34:09;4.30;73.00
65064;DHT22;51654;51.452;6.644;2022-12-07T16:36:36;4.20;72.90
65064;DHT22;51654;51.452;6.644;2022-12-07T16:39:23;4.20;73.00
65064;DHT22;51654;51.452;6.644;2022-12-07T16:41:50;4.20;73.10
65064;DHT22;51654;51.452;6.644;2022-12-07T16:44:19;4.20;73.00
65064;DHT22;51654;51.452;6.644;2022-12-07T16:46:46;4.30;73.00
65064;DHT22;51654;51.452;6.644;2022-12-07T16:49:13;4.20;73.10
65064;DHT22;51654;51.452;6.644;2022-12-07T16:51:41;4.30;73.20
65064;DHT22;51654;51.452;6.644;2022-12-07T16:54:09;4.20;73.20
65064;DHT22;51654;51.452;6.644;2022-12-07T16:56:36;4.20;73.20
65064;DHT22;51654;51.452;6.644;2022-12-07T16:59:03;4.20;73.30
65064;DHT22;51654;51.452;6.644;2022-12-07T17:01:30;4.20;73.40
65064;DHT22;51654;51.452;6.644;2022-12-07T17:03:57;4.20;73.40
65064;DHT22;51654;51.452;6.644;2022-12-07T17:06:25;4.20;73.50
65064;DHT22;51654;51.452;6.644;2022-12-07T17:08:53;4.20;73.60
65064;DHT22;51654;51.452;6.644;2022-12-07T17:11:21;4.10;73.70
65064;DHT22;51654;51.452;6.644;2022-12-07T17:13:48;4.10;73.80
65064;DHT22;51654;51.452;6.644;2022-12-07T17:16:34;4.10;73.90
65064;DHT22;51654;51.452;6.644;2022-12-07T17:19:06;4.10;73.90
65064;DHT22;51654;51.452;6.644;2022-12-07T17:21:34;4.00;74.00
65064;DHT22;51654;51.452;6.644;2022-12-07T17:24:01;4.00;74.10
65064;DHT22;51654;51.452;6.644;2022-12-07T17:26:28;3.90;74.20
65064;DHT22;51654;51.452;6.644;2022-12-07T17:29:01;3.90;74.30
65064;DHT22;51654;51.452;6.644;2022-12-07T17:31:28;3.90;74.40
65064;DHT22;51654;51.452;6.644;2022-12-07T17:33:55;3.90;74.50
65064;DHT22;51654;51.452;6.644;2022-12-07T17:36:23;3.80;74.60
65064;DHT22;51654;51.452;6.644;2022-12-07T17:38:51;3.80;74.60
65064;DHT22;51654;51.452;6.644;2022-12-07T17:41:18;3.80;74.60
65064;DHT22;51654;51.452;6.644;2022-12-07T17:44:06;3.80;74.60
65064;DHT22;51654;51.452;6.644;2022-12-07T17:46:33;3.80;74.60
65064;DHT22;51654;51.452;6.644;2022-12-07T17:49:00;3.70;74.60
65064;DHT22;51654;51.452;6.644;2022-12-07T17:51:27;3.70;74.60
65064;DHT22;51654;51.452;6.644;2022-12-07T17:54:13;3.70;74.60
65064;DHT22;51654;51.452;6.644;2022-12-07T17:56:40;3.70;74.70
65064;DHT22;51654;51.452;6.644;2022-12-07T17:59:07;3.60;74.80
65064;DHT22;51654;51.452;6.644;2022-12-07T18:01:35;3.60;74.90
65064;DHT22;51654;51.452;6.644;2022-12-07T18:04:02;3.60;75.00
65064;DHT22;51654;51.452;6.644;2022-12-07T18:06:29;3.60;75.00
65064;DHT22;51654;51.452;6.644;2022-12-07T18:08:57;3.60;75.10
65064;DHT22;51654;51.452;6.644;2022-12-07T18:11:25;3.60;75.10
65064;DHT22;51654;51.452;6.644;2022-12-07T18:13:52;3.50;75.20
65064;DHT22;51654;51.452;6.644;2022-12-07T18:16:25;3.60;75.20
65064;DHT22;51654;51.452;6.644;2022-12-07T18:18:53;3.50;75.30
65064;DHT22;51654;51.452;6.644;2022-12-07T18:21:22;3.50;75.40
65064;DHT22;51654;51.452;6.644;2022-12-07T18:23:52;3.50;75.50
65064;DHT22;51654;51.452;6.644;2022-12-07T18:26:20;3.50;75.50
65064;DHT22;51654;51.452;6.644;2022-12-07T18:28:47;3.50;75.70
65064;DHT22;51654;51.452;6.644;2022-12-07T18:31:14;3.40;75.80
65064;DHT22;51654;51.452;6.644;2022-12-07T18:33:43;3.40;76.00
65064;DHT22;51654;51.452;6.644;2022-12-07T18:36:11;3.40;76.20
65064;DHT22;51654;51.452;6.644;2022-12-07T18:38:38;3.40;76.30
65064;DHT22;51654;51.452;6.644;2022-12-07T18:41:11;3.40;76.40
65064;DHT22;51654;51.452;6.644;2022-12-07T18:43:38;3.40;76.40
65064;DHT22;51654;51.452;6.644;2022-12-07T18:46:09;3.40;76.50
65064;DHT22;51654;51.452;6.644;2022-12-07T18:48:37;3.40;76.50
65064;DHT22;51654;51.452;6.644;2022-12-07T18:51:06;3.40;76.60
65064;DHT22;51654;51.452;6.644;2022-12-07T18:53:33;3.30;76.70
65064;DHT22;51654;51.452;6.644;2022-12-07T18:58:28;3.20;76.90
65064;DHT22;51654;51.452;6.644;2022-12-07T19:00:55;3.20;77.00
65064;DHT22;51654;51.452;6.644;2022-12-07T19:03:22;3.20;77.10
65064;DHT22;51654;51.452;6.644;2022-12-07T19:05:57;3.10;77.20
65064;DHT22;51654;51.452;6.644;2022-12-07T19:08:24;3.10;77.30
65064;DHT22;51654;51.452;6.644;2022-12-07T19:10:51;3.10;77.40
65064;DHT22;51654;51.452;6.644;2022-12-07T19:13:17;3.10;77.50
65064;DHT22;51654;51.452;6.644;2022-12-07T19:15:44;3.10;77.60
65064;DHT22;51654;51.452;6.644;2022-12-07T19:18:11;3.10;77.60
65064;DHT22;51654;51.452;6.644;2022-12-07T19:20:38;3.10;77.70
65064;DHT22;51654;51.452;6.644;2022-12-07T19:23:05;3.00;77.80
65064;DHT22;51654;51.452;6.644;2022-12-07T19:25:31;3.00;77.90
65064;DHT22;51654;51.452;6.644;2022-12-07T19:27:58;3.00;77.90
65064;DHT22;51654;51.452;6.644;2022-12-07T19:30:25;3.00;78.10
65064;DHT22;51654;51.452;6.644;2022-12-07T19:32:51;2.90;78.20
65064;DHT22;51654;51.452;6.644;2022-12-07T19:35:18;3.00;78.30
65064;DHT22;51654;51.452;6.644;2022-12-07T19:37:45;2.90;78.30
65064;DHT22;51654;51.452;6.644;2022-12-07T19:40:12;2.90;78.50
65064;DHT22;51654;51.452;6.644;2022-12-07T19:42:39;2.90;78.50
65064;DHT22;51654;51.452;6.644;2022-12-07T19:45:06;2.90;78.60
65064;DHT22;51654;51.452;6.644;2022-12-07T19:47:32;2.90;78.70
65064;DHT22;51654;51.452;6.644;2022-12-07T19:49:59;2.90;78.80
65064;DHT22;51654;51.452;6.644;2022-12-07T19:52:26;2.90;78.90
65064;DHT22;51654;51.452;6.644;2022-12-07T19:54:59;2.90;79.00
65064;DHT22;51654;51.452;6.644;2022-12-07T19:57:26;2.90;79.10
65064;DHT22;51654;51.452;6.644;2022-12-07T19:59:53;2.90;79.10
65064;DHT22;51654;51.452;6.644;2022-12-07T20:02:19;2.90;79.20
65064;DHT22;51654;51.452;6.644;2022-12-07T20:04:46;2.90;79.20
65064;DHT22;51654;51.452;6.644;2022-12-07T20:07:13;2.90;79.30
65064;DHT22;51654;51.452;6.644;2022-12-07T20:09:40;2.90;79.30
65064;DHT22;51654;51.452;6.644;2022-12-07T20:12:08;2.90;79.40
65064;DHT22;51654;51.452;6.644;2022-12-07T20:14:53;2.90;79.50
65064;DHT22;51654;51.452;6.644;2022-12-07T20:17:20;2.90;79.50
65064;DHT22;51654;51.452;6.644;2022-12-07T20:19:47;2.90;79.50
65064;DHT22;51654;51.452;6.644;2022-12-07T20:22:14;2.90;79.60
65064;DHT22;51654;51.452;6.644;2022-12-07T20:24:40;2.90;79.60
65064;DHT22;51654;51.452;6.644;2022-12-07T20:27:07;2.90;79.60
65064;DHT22;51654;51.452;6.644;2022-12-07T20:29:34;2.90;79.60
65064;DHT22;51654;51.452;6.644;2022-12-07T20:32:01;2.90;79.60
65064;DHT22;51654;51.452;6.644;2022-12-07T20:34:28;2.90;79.70
65064;DHT22;51654;51.452;6.644;2022-12-07T20:36:54;2.90;79.80
65064;DHT22;51654;51.452;6.644;2022-12-07T20:39:22;2.90;79.80
65064;DHT22;51654;51.452;6.644;2022-12-07T20:41:49;2.90;79.90
65064;DHT22;51654;51.452;6.644;2022-12-07T20:44:34;2.90;79.90
65064;DHT22;51654;51.452;6.644;2022-12-07T20:47:02;2.90;80.00
65064;DHT22;51654;51.452;6.644;2022-12-07T20:49:29;2.90;80.00
65064;DHT22;51654;51.452;6.644;2022-12-07T20:51:56;2.90;80.20
65064;DHT22;51654;51.452;6.644;2022-12-07T20:54:22;2.80;80.20
65064;DHT22;51654;51.452;6.644;2022-12-07T20:56:49;2.80;80.20
65064;DHT22;51654;51.452;6.644;2022-12-07T20:59:16;2.80;80.30
65064;DHT22;51654;51.452;6.644;2022-12-07T21:01:43;2.80;80.40
65064;DHT22;51654;51.452;6.644;2022-12-07T21:04:11;2.90;80.40
65064;DHT22;51654;51.452;6.644;2022-12-07T21:06:38;2.80;80.40
65064;DHT22;51654;51.452;6.644;2022-12-07T21:09:05;2.80;80.50
65064;DHT22;51654;51.452;6.644;2022-12-07T21:11:32;2.80;80.50
65064;DHT22;51654;51.452;6.644;2022-12-07T21:13:59;2.80;80.60
65064;DHT22;51654;51.452;6.644;2022-12-07T21:16:27;2.80;80.70
65064;DHT22;51654;51.452;6.644;2022-12-07T21:18:55;2.80;80.80
65064;DHT22;51654;51.452;6.644;2022-12-07T21:21:22;2.80;80.90
65064;DHT22;51654;51.452;6.644;2022-12-07T21:23:50;2.80;80.90
65064;DHT22;51654;51.452;6.644;2022-12-07T21:26:21;2.80;80.90
65064;DHT22;51654;51.452;6.644;2022-12-07T21:28:48;2.80;80.90
65064;DHT22;51654;51.452;6.644;2022-12-07T21:31:15;2.80;81.00
65064;DHT22;51654;51.452;6.644;2022-12-07T21:33:43;2.90;81.00
65064;DHT22;51654;51.452;6.644;2022-12-07T21:36:10;2.90;81.10
65064;DHT22;51654;51.452;6.644;2022-12-07T21:38:38;2.90;81.00
65064;DHT22;51654;51.452;6.644;2022-12-07T21:43:41;2.90;80.90
65064;DHT22;51654;51.452;6.644;2022-12-07T21:46:07;2.90;80.80
65064;DHT22;51654;51.452;6.644;2022-12-07T21:48:34;2.90;80.80
65064;DHT22;51654;51.452;6.644;2022-12-07T21:51:05;2.90;80.80
65064;DHT22;51654;51.452;6.644;2022-12-07T21:53:32;2.90;80.80
65064;DHT22;51654;51.452;6.644;2022-12-07T21:55:59;2.90;80.80
65064;DHT22;51654;51.452;6.644;2022-12-07T21:58:29;2.90;80.80
65064;DHT22;51654;51.452;6.644;2022-12-07T22:00:57;2.90;80.80
65064;DHT22;51654;51.452;6.644;2022-12-07T22:03:24;2.90;80.80
65064;DHT22;51654;51.452;6.644;2022-12-07T22:05:50;2.90;80.90
65064;DHT22;51654;51.452;6.644;2022-12-07T22:08:17;2.90;80.90
65064;DHT22;51654;51.452;6.644;2022-12-07T22:10:44;2.90;80.90
65064;DHT22;51654;51.452;6.644;2022-12-07T22:13:11;2.90;80.80
65064;DHT22;51654;51.452;6.644;2022-12-07T22:15:39;2.90;80.80
65064;DHT22;51654;51.452;6.644;2022-12-07T22:18:06;2.90;80.70
65064;DHT22;51654;51.452;6.644;2022-12-07T22:20:33;2.90;80.60
65064;DHT22;51654;51.452;6.644;2022-12-07T22:23:00;2.90;80.60
65064;DHT22;51654;51.452;6.644;2022-12-07T22:25:27;2.90;80.50
65064;DHT22;51654;51.452;6.644;2022-12-07T22:27:54;2.90;80.40
65064;DHT22;51654;51.452;6.644;2022-12-07T22:30:20;2.90;80.40
65064;DHT22;51654;51.452;6.644;2022-12-07T22:32:47;2.90;80.30
65064;DHT22;51654;51.452;6.644;2022-12-07T22:35:15;2.90;80.30
65064;DHT22;51654;51.452;6.644;2022-12-07T22:37:42;2.90;80.50
65064;DHT22;51654;51.452;6.644;2022-12-07T22:40:09;2.90;80.50
65064;DHT22;51654;51.452;6.644;2022-12-07T22:42:36;2.90;80.50
65064;DHT22;51654;51.452;6.644;2022-12-07T22:45:02;2.90;80.60
65064;DHT22;51654;51.452;6.644;2022-12-07T22:47:30;2.90;80.70
65064;DHT22;51654;51.452;6.644;2022-12-07T22:49:56;2.80;80.70
65064;DHT22;51654;51.452;6.644;2022-12-07T22:52:24;2.80;80.80
65064;DHT22;51654;51.452;6.644;2022-12-07T22:54:51;2.80;80.80
65064;DHT22;51654;51.452;6.644;2022-12-07T22:57:17;2.80;80.90
65064;DHT22;51654;51.452;6.644;2022-12-07T22:59:45;2.80;81.00
65064;DHT22;51654;51.452;6.644;2022-12-07T23:02:11;2.80;81.00
65064;DHT22;51654;51.452;6.644;2022-12-07T23:04:38;2.80;81.00
65064;DHT22;51654;51.452;6.644;2022-12-07T23:07:05;2.80;81.10
65064;DHT22;51654;51.452;6.644;2022-12-07T23:09:32;2.70;81.20
65064;DHT22;51654;51.452;6.644;2022-12-07T23:11:58;2.70;81.30
65064;DHT22;51654;51.452;6.644;2022-12-07T23:15:02;2.60;81.40
65064;DHT22;51654;51.452;6.644;2022-12-07T23:17:29;2.50;81.50
65064;DHT22;51654;51.452;6.644;2022-12-07T23:19:56;2.50;81.60
65064;DHT22;51654;51.452;6.644;2022-12-07T23:22:25;2.40;81.80
65064;DHT22;51654;51.452;6.644;2022-12-07T23:24:51;2.50;81.80
65064;DHT22;51654;51.452;6.644;2022-12-07T23:27:21;2.40;81.90
65064;DHT22;51654;51.452;6.644;2022-12-07T23:29:48;2.40;81.90
65064;DHT22;51654;51.452;6.644;2022-12-07T23:32:15;2.40;82.00
65064;DHT22;51654;51.452;6.644;2022-12-07T23:34:42;2.40;82.00
65064;DHT22;51654;51.452;6.644;2022-12-07T23:37:09;2.40;82.00
65064;DHT22;51654;51.452;6.644;2022-12-07T23:39:35;2.40;82.10
65064;DHT22;51654;51.452;6.644;2022-12-07T23:42:02;2.40;82.10
65064;DHT22;51654;51.452;6.644;2022-12-07T23:44:29;2.30;82.10
65064;DHT22;51654;51.452;6.644;2022-12-07T23:46:56;2.40;82.10
65064;DHT22;51654;51.452;6.644;2022-12-07T23:49:22;2.40;82.10
65064;DHT22;51654;51.452;6.644;2022-12-07T23:51:49;2.30;82.00
65064;DHT22;51654;51.452;6.644;2022-12-07T23:54:16;2.40;82.00
65064;DHT22;51654;51.452;6.644;2022-12-07T23:56:43;2.40;82.00
65064;DHT22;51654;51.452;6.644;2022-12-07T23:59:10;2.30;82.00
